createdAt,value
2019-05-23T00:01:34.288Z,6.90
2019-05-23T00:04:07.728Z,5.70
2019-05-23T00:06:37.805Z,6.37
2019-05-23T00:09:06.915Z,9.87
2019-05-23T00:11:44.963Z,4.50
2019-05-23T00:14:32.707Z,6.83
2019-05-23T00:17:02.352Z,4.80
2019-05-23T00:19:32.791Z,7.70
2019-05-23T00:22:01.689Z,6.73
2019-05-23T00:24:30.908Z,5.17
2019-05-23T00:26:59.981Z,3.67
2019-05-23T00:29:29.317Z,5.40
2019-05-23T00:32:05.349Z,5.43
2019-05-23T00:34:35.320Z,8.33
2019-05-23T00:37:04.839Z,4.13
2019-05-23T00:39:35.134Z,6.37
2019-05-23T00:42:05.077Z,4.90
2019-05-23T00:44:34.327Z,3.77
2019-05-23T00:47:02.947Z,5.50
2019-05-23T00:49:32.233Z,9.30
2019-05-23T00:52:01.427Z,4.87
2019-05-23T00:54:30.458Z,5.90
2019-05-23T00:56:59.444Z,5.37
2019-05-23T00:59:28.148Z,6.03
2019-05-23T01:01:57.211Z,5.00
2019-05-23T01:04:26.564Z,6.07
2019-05-23T01:06:56.800Z,6.90
2019-05-23T01:09:27.437Z,4.17
2019-05-23T01:11:56.099Z,4.50
2019-05-23T01:14:25.203Z,7.37
2019-05-23T01:16:54.665Z,7.77
2019-05-23T01:19:24.362Z,8.83
2019-05-23T01:22:04.012Z,6.03
2019-05-23T01:24:34.215Z,4.97
2019-05-23T01:27:02.909Z,12.40
2019-05-23T01:29:37.667Z,5.63
2019-05-23T01:32:05.115Z,5.10
2019-05-23T01:34:34.310Z,4.83
2019-05-23T01:37:04.214Z,6.13
2019-05-23T01:39:33.805Z,5.37
2019-05-23T01:42:02.817Z,5.40
2019-05-23T01:44:32.258Z,14.03
2019-05-23T01:47:00.935Z,4.33
2019-05-23T01:49:30.604Z,7.40
2019-05-23T01:51:59.705Z,7.00
2019-05-23T01:54:28.782Z,4.73
2019-05-23T01:56:57.455Z,6.00
2019-05-23T01:59:26.451Z,4.30
2019-05-23T02:01:55.146Z,4.63
2019-05-23T02:04:23.779Z,4.80
2019-05-23T02:06:52.872Z,5.83
2019-05-23T02:09:22.342Z,4.63
2019-05-23T02:11:51.734Z,6.57
2019-05-23T02:14:20.341Z,6.10
2019-05-23T02:16:49.650Z,5.80
2019-05-23T02:19:19.743Z,4.90
2019-05-23T02:21:49.293Z,8.80
2019-05-23T02:24:18.760Z,5.60
2019-05-23T02:26:47.375Z,7.10
2019-05-23T02:29:16.751Z,4.87
2019-05-23T02:31:45.378Z,3.77
2019-05-23T02:34:14.564Z,7.87
2019-05-23T02:36:44.414Z,3.80
2019-05-23T02:39:23.498Z,5.53
2019-05-23T02:42:09.005Z,5.70
2019-05-23T02:44:39.187Z,6.40
2019-05-23T02:47:21.753Z,6.40
2019-05-23T02:49:51.308Z,6.80
2019-05-23T02:52:28.906Z,7.00
2019-05-23T02:54:57.972Z,9.83
2019-05-23T02:57:28.150Z,9.47
2019-05-23T02:59:59.853Z,10.20
2019-05-23T03:02:36.114Z,5.97
2019-05-23T03:05:07.335Z,7.97
2019-05-23T03:07:36.442Z,5.63
2019-05-23T03:10:09.790Z,5.07
2019-05-23T03:12:39.822Z,7.47
2019-05-23T03:15:10.963Z,8.17
2019-05-23T03:17:41.681Z,5.07
2019-05-23T03:20:11.532Z,6.17
2019-05-23T03:22:49.235Z,7.47
2019-05-23T03:25:37.098Z,6.07
2019-05-23T03:28:09.851Z,6.33
2019-05-23T03:30:40.150Z,7.70
2019-05-23T03:33:10.787Z,8.17
2019-05-23T03:35:41.143Z,9.47
2019-05-23T03:38:10.789Z,13.53
2019-05-23T03:40:40.311Z,5.97
2019-05-23T03:43:09.372Z,9.47
2019-05-23T03:45:40.358Z,8.47
2019-05-23T03:48:09.235Z,5.20
2019-05-23T03:50:39.615Z,13.97
2019-05-23T03:53:08.347Z,7.27
2019-05-23T03:55:37.053Z,7.87
2019-05-23T03:58:06.245Z,5.40
2019-05-23T04:00:37.250Z,6.13
2019-05-23T04:03:06.071Z,16.33
2019-05-23T04:05:35.152Z,7.17
2019-05-23T04:08:04.763Z,6.70
2019-05-23T04:10:33.663Z,6.00
2019-05-23T04:13:02.447Z,6.73
2019-05-23T04:15:31.091Z,5.80
2019-05-23T04:17:59.785Z,10.67
2019-05-23T04:20:28.398Z,8.60
2019-05-23T04:22:57.670Z,8.27
2019-05-23T04:25:27.077Z,7.10
2019-05-23T04:27:57.069Z,7.40
2019-05-23T04:30:25.736Z,7.83
2019-05-23T04:32:54.385Z,7.43
2019-05-23T04:35:23.057Z,6.30
2019-05-23T04:37:51.730Z,9.97
2019-05-23T04:40:20.770Z,7.23
2019-05-23T04:42:49.408Z,6.20
2019-05-23T04:45:18.073Z,8.63
2019-05-23T04:47:47.810Z,8.90
2019-05-23T04:50:17.421Z,5.40
2019-05-23T04:52:46.201Z,5.10
2019-05-23T04:55:15.629Z,8.60
2019-05-23T04:57:45.616Z,6.10
2019-05-23T05:00:20.845Z,9.33
2019-05-23T05:02:49.828Z,9.63
2019-05-23T05:05:19.212Z,8.33
2019-05-23T05:07:48.055Z,11.10
2019-05-23T05:10:19.955Z,14.60
2019-05-23T05:12:48.813Z,13.13
2019-05-23T05:15:17.625Z,8.80
2019-05-23T05:17:48.377Z,9.63
2019-05-23T05:20:17.503Z,7.53
2019-05-23T05:22:46.319Z,5.30
2019-05-23T05:25:15.977Z,7.53
2019-05-23T05:27:45.034Z,8.20
2019-05-23T05:30:13.902Z,6.17
2019-05-23T05:32:45.216Z,14.00
2019-05-23T05:35:14.465Z,6.87
2019-05-23T05:37:43.630Z,5.80
2019-05-23T05:40:13.211Z,11.73
2019-05-23T05:42:41.992Z,7.07
2019-05-23T05:45:11.690Z,7.50
2019-05-23T05:47:40.746Z,5.10
2019-05-23T05:50:11.041Z,5.60
2019-05-23T05:52:40.363Z,8.70
2019-05-23T05:55:09.849Z,17.37
2019-05-23T05:57:38.479Z,7.27
2019-05-23T06:00:12.963Z,11.20
2019-05-23T06:02:42.188Z,10.57
2019-05-23T06:05:12.543Z,13.63
2019-05-23T06:07:45.241Z,14.20
2019-05-23T06:10:15.867Z,13.43
2019-05-23T06:12:44.562Z,11.93
2019-05-23T06:15:13.296Z,13.60
2019-05-23T06:17:42.946Z,10.90
2019-05-23T06:20:11.667Z,13.37
2019-05-23T06:22:40.971Z,13.33
2019-05-23T06:25:10.399Z,12.70
2019-05-23T06:27:40.617Z,8.83
2019-05-23T06:30:12.582Z,11.37
2019-05-23T06:32:41.379Z,13.17
2019-05-23T06:35:10.456Z,10.27
2019-05-23T06:37:40.007Z,8.40
2019-05-23T06:40:11.939Z,11.97
2019-05-23T06:42:40.566Z,9.57
2019-05-23T06:45:11.434Z,8.47
2019-05-23T06:47:40.646Z,8.70
2019-05-23T06:50:15.992Z,13.87
2019-05-23T06:52:44.834Z,10.20
2019-05-23T06:55:13.845Z,10.73
2019-05-23T06:57:42.485Z,13.63
2019-05-23T07:00:13.477Z,14.27
2019-05-23T07:02:42.817Z,10.00
2019-05-23T07:05:11.717Z,9.33
2019-05-23T07:07:41.488Z,14.00
2019-05-23T07:10:10.701Z,9.47
2019-05-23T07:12:39.314Z,8.87
2019-05-23T07:15:10.164Z,6.97
2019-05-23T07:17:39.323Z,10.53
2019-05-23T07:20:09.136Z,10.67
2019-05-23T07:22:37.888Z,9.07
2019-05-23T07:25:09.945Z,9.60
2019-05-23T07:27:38.823Z,12.33
2019-05-23T07:30:14.182Z,8.30
2019-05-23T07:32:42.838Z,11.40
2019-05-23T07:35:12.989Z,8.10
2019-05-23T07:37:41.690Z,8.10
2019-05-23T07:40:10.779Z,8.07
2019-05-23T07:42:39.908Z,8.73
2019-05-23T07:45:10.300Z,9.47
2019-05-23T07:47:40.238Z,9.53
2019-05-23T07:50:09.428Z,11.60
2019-05-23T07:52:40.330Z,10.00
2019-05-23T07:55:16.802Z,7.97
2019-05-23T07:57:45.631Z,12.43
2019-05-23T08:00:25.312Z,7.87
2019-05-23T08:02:54.624Z,9.33
2019-05-23T08:05:23.933Z,8.43
2019-05-23T08:07:53.509Z,7.40
2019-05-23T08:10:32.991Z,7.60
2019-05-23T08:12:53.782Z,8.37
2019-05-23T08:15:22.500Z,5.83
2019-05-23T08:17:52.559Z,11.13
2019-05-23T08:20:21.688Z,9.73
2019-05-23T08:22:50.387Z,8.57
2019-05-23T08:25:19.110Z,6.50
2019-05-23T08:27:48.362Z,11.00
2019-05-23T08:30:19.327Z,8.93
2019-05-23T08:32:48.604Z,12.13
2019-05-23T08:35:18.406Z,7.00
2019-05-23T08:37:47.346Z,14.77
2019-05-23T08:40:18.139Z,6.40
2019-05-23T08:42:47.875Z,10.97
2019-05-23T08:45:17.247Z,7.90
2019-05-23T08:47:45.945Z,11.30
2019-05-23T08:50:15.268Z,5.00
2019-05-23T08:52:43.975Z,8.53
2019-05-23T08:55:21.944Z,6.60
2019-05-23T08:57:52.334Z,9.43
2019-05-23T09:00:22.903Z,8.00
2019-05-23T09:02:53.545Z,7.00
2019-05-23T09:05:23.797Z,5.60
2019-05-23T09:07:52.522Z,6.33
2019-05-23T09:10:21.188Z,7.90
2019-05-23T09:12:49.872Z,6.10
2019-05-23T09:15:18.815Z,6.70
2019-05-23T09:17:53.877Z,6.50
2019-05-23T09:20:19.707Z,9.50
2019-05-23T09:22:48.332Z,5.90
2019-05-23T09:25:17.362Z,9.03
2019-05-23T09:27:46.643Z,6.00
2019-05-23T09:30:16.634Z,5.90
2019-05-23T09:32:45.659Z,9.20
2019-05-23T09:35:21.065Z,5.70
2019-05-23T09:37:46.693Z,7.20
2019-05-23T09:40:15.458Z,7.07
2019-05-23T09:42:44.089Z,7.00
2019-05-23T09:45:12.770Z,7.43
2019-05-23T09:47:41.736Z,6.67
2019-05-23T09:50:14.034Z,9.17
2019-05-23T09:52:42.706Z,8.80
2019-05-23T09:55:11.522Z,7.00
2019-05-23T09:57:40.199Z,6.60
2019-05-23T10:00:11.142Z,5.50
2019-05-23T10:02:39.851Z,6.23
2019-05-23T10:05:11.900Z,4.73
2019-05-23T10:07:42.097Z,6.20
2019-05-23T10:10:11.675Z,7.20
2019-05-23T10:12:40.313Z,4.10
2019-05-23T10:15:12.488Z,7.70
2019-05-23T10:17:41.187Z,6.13
2019-05-23T10:20:09.881Z,4.57
2019-05-23T10:22:38.565Z,7.50
2019-05-23T10:25:07.563Z,4.90
2019-05-23T10:27:36.252Z,5.13
2019-05-23T10:30:08.788Z,6.17
2019-05-23T10:32:37.418Z,10.60
2019-05-23T10:35:08.128Z,8.07
2019-05-23T10:37:37.168Z,7.53
2019-05-23T10:40:05.854Z,4.27
2019-05-23T10:42:35.021Z,5.47
2019-05-23T10:45:04.506Z,3.80
2019-05-23T10:47:33.635Z,6.23
2019-05-23T10:50:07.709Z,6.60
2019-05-23T10:52:33.562Z,5.03
2019-05-23T10:55:02.273Z,4.20
2019-05-23T10:57:31.373Z,6.23
2019-05-23T11:00:02.041Z,4.87
2019-05-23T11:02:31.012Z,3.30
2019-05-23T11:05:11.593Z,5.37
2019-05-23T11:07:30.716Z,2.60
2019-05-23T11:09:59.336Z,5.83
2019-05-23T11:12:28.024Z,6.40
2019-05-23T11:14:56.650Z,8.43
2019-05-23T11:17:25.318Z,3.00
2019-05-23T11:19:53.928Z,6.00
2019-05-23T11:22:22.608Z,4.80
2019-05-23T11:24:51.232Z,2.60
2019-05-23T11:27:20.726Z,3.10
2019-05-23T11:29:49.405Z,5.30
2019-05-23T11:32:20.303Z,3.27
2019-05-23T11:34:48.425Z,4.23
2019-05-23T11:37:17.261Z,2.70
2019-05-23T11:39:49.518Z,4.23
2019-05-23T11:42:16.288Z,2.80
2019-05-23T11:44:45.087Z,2.33
2019-05-23T11:47:14.319Z,4.00
2019-05-23T11:49:44.308Z,5.73
2019-05-23T11:52:15.003Z,9.93
2019-05-23T11:54:43.624Z,2.80
2019-05-23T11:57:16.040Z,2.40
2019-05-23T11:59:44.965Z,4.77
2019-05-23T12:02:30.430Z,3.27
2019-05-23T12:05:00.681Z,2.53
2019-05-23T12:07:30.971Z,8.53
2019-05-23T12:09:59.679Z,3.27
2019-05-23T12:12:30.169Z,5.20
2019-05-23T12:14:58.845Z,4.40
2019-05-23T12:17:29.264Z,2.87
2019-05-23T12:19:58.143Z,4.47
2019-05-23T12:22:28.567Z,2.93
2019-05-23T12:24:57.665Z,3.10
2019-05-23T12:27:26.395Z,2.93
2019-05-23T12:29:55.071Z,2.20
2019-05-23T12:32:24.123Z,3.90
2019-05-23T12:35:09.258Z,3.30
2019-05-23T12:37:23.458Z,4.10
2019-05-23T12:39:52.133Z,3.27
2019-05-23T12:42:21.152Z,3.10
2019-05-23T12:44:49.857Z,2.70
2019-05-23T12:47:20.053Z,2.93
2019-05-23T12:49:50.444Z,2.20
2019-05-23T12:52:19.100Z,6.93
2019-05-23T12:54:47.795Z,5.73
2019-05-23T12:57:16.754Z,3.23
2019-05-23T12:59:46.985Z,2.93
2019-05-23T13:02:17.201Z,3.13
2019-05-23T13:04:45.984Z,3.83
2019-05-23T13:07:15.712Z,1.70
2019-05-23T13:09:44.582Z,2.60
2019-05-23T13:12:16.421Z,2.10
2019-05-23T13:14:44.438Z,3.20
2019-05-23T13:17:13.102Z,2.40
2019-05-23T13:19:41.987Z,2.53
2019-05-23T13:22:12.266Z,2.63
2019-05-23T13:24:51.962Z,3.63
2019-05-23T13:27:11.310Z,6.00
2019-05-23T13:29:39.944Z,1.63
2019-05-23T13:32:08.642Z,1.70
2019-05-23T13:34:37.865Z,2.30
2019-05-23T13:37:08.309Z,2.13
2019-05-23T13:39:37.322Z,5.73
2019-05-23T13:42:05.995Z,3.73
2019-05-23T13:44:36.474Z,2.10
2019-05-23T13:47:05.308Z,2.90
2019-05-23T13:49:34.490Z,3.07
2019-05-23T13:52:03.220Z,1.77
2019-05-23T13:54:35.885Z,2.10
2019-05-23T13:57:03.508Z,1.73
2019-05-23T13:59:32.333Z,1.93
2019-05-23T14:02:01.280Z,4.20
2019-05-23T14:04:30.103Z,2.03
2019-05-23T14:06:58.750Z,1.60
2019-05-23T14:09:27.702Z,22.13
2019-05-23T14:12:20.134Z,4.90
2019-05-23T14:14:27.293Z,3.00
2019-05-23T14:17:15.832Z,2.40
2019-05-23T14:19:44.748Z,2.00
2019-05-23T14:22:13.536Z,1.90
2019-05-23T14:24:42.184Z,1.63
2019-05-23T14:27:15.561Z,2.00
2019-05-23T14:29:44.280Z,2.23
2019-05-23T14:32:23.359Z,3.13
2019-05-23T14:34:55.649Z,2.57
2019-05-23T14:37:31.816Z,2.70
2019-05-23T14:40:02.247Z,2.20
2019-05-23T14:42:32.516Z,2.10
2019-05-23T14:45:01.134Z,3.40
2019-05-23T14:47:43.709Z,8.73
2019-05-23T14:50:30.206Z,1.70
2019-05-23T14:53:00.488Z,1.90
2019-05-23T14:55:29.108Z,2.10
2019-05-23T14:57:57.945Z,2.80
2019-05-23T15:00:28.349Z,1.87
2019-05-23T15:02:57.048Z,2.00
2019-05-23T15:05:25.726Z,1.70
2019-05-23T15:07:54.361Z,3.23
2019-05-23T15:10:23.147Z,3.80
2019-05-23T15:12:51.895Z,2.63
2019-05-23T15:15:20.580Z,3.13
2019-05-23T15:17:49.206Z,3.73
2019-05-23T15:20:17.915Z,2.07
2019-05-23T15:22:46.572Z,2.47
2019-05-23T15:25:15.866Z,1.67
2019-05-23T15:27:44.571Z,5.60
2019-05-23T15:30:13.663Z,2.17
2019-05-23T15:32:42.387Z,4.70
2019-05-23T15:35:11.142Z,3.43
2019-05-23T15:37:39.929Z,7.13
2019-05-23T15:40:08.727Z,2.40
2019-05-23T15:42:37.411Z,4.47
2019-05-23T15:45:07.886Z,2.73
2019-05-23T15:47:36.672Z,1.90
2019-05-23T15:50:11.291Z,2.57
2019-05-23T15:52:42.251Z,3.20
2019-05-23T15:55:13.008Z,2.43
2019-05-23T15:57:43.285Z,10.07
2019-05-23T16:00:28.676Z,2.93
2019-05-23T16:03:01.560Z,2.20
2019-05-23T16:05:31.341Z,1.83
2019-05-23T16:08:00.004Z,4.57
2019-05-23T16:10:29.615Z,2.70
2019-05-23T16:12:59.042Z,2.00
2019-05-23T16:15:28.067Z,2.70
2019-05-23T16:17:57.505Z,1.90
2019-05-23T16:20:26.593Z,7.07
2019-05-23T16:22:55.336Z,3.50
2019-05-23T16:25:24.115Z,1.80
2019-05-23T16:27:53.825Z,1.53
2019-05-23T16:30:24.023Z,3.87
2019-05-23T16:32:52.752Z,2.00
2019-05-23T16:35:21.554Z,1.60
2019-05-23T16:37:50.229Z,2.10
2019-05-23T16:40:20.708Z,3.10
2019-05-23T16:42:49.454Z,2.50
2019-05-23T16:45:18.356Z,2.50
2019-05-23T16:47:47.113Z,2.63
2019-05-23T16:50:16.214Z,2.30
2019-05-23T16:52:44.880Z,2.77
2019-05-23T16:55:17.298Z,3.20
2019-05-23T16:57:50.362Z,2.90
2019-05-23T17:00:21.750Z,1.80
2019-05-23T17:02:58.531Z,3.30
2019-05-23T17:05:31.639Z,2.90
2019-05-23T17:08:04.401Z,2.03
2019-05-23T17:10:39.938Z,3.10
2019-05-23T17:13:18.949Z,2.47
2019-05-23T17:15:51.909Z,2.43
2019-05-23T17:18:25.063Z,2.20
2019-05-23T17:20:55.454Z,2.20
2019-05-23T17:23:52.021Z,5.00
2019-05-23T17:26:26.660Z,3.67
2019-05-23T17:28:56.497Z,2.63
2019-05-23T17:31:39.062Z,2.30
2019-05-23T17:34:09.536Z,2.23
2019-05-23T17:36:38.259Z,1.90
2019-05-23T17:39:09.616Z,2.93
2019-05-23T17:41:39.875Z,2.33
2019-05-23T17:44:08.617Z,5.13
2019-05-23T17:46:37.413Z,3.53
2019-05-23T17:49:06.691Z,2.40
2019-05-23T17:51:35.491Z,5.20
2019-05-23T17:54:04.511Z,2.50
2019-05-23T17:56:33.171Z,3.30
2019-05-23T17:59:01.938Z,2.97
2019-05-23T18:01:32.558Z,9.53
2019-05-23T18:04:01.460Z,1.97
2019-05-23T18:06:30.185Z,2.60
2019-05-23T18:08:59.299Z,4.50
2019-05-23T18:11:30.220Z,3.87
2019-05-23T18:13:59.743Z,6.80
2019-05-23T18:16:28.784Z,2.80
2019-05-23T18:18:57.419Z,3.30
2019-05-23T18:21:26.440Z,5.03
2019-05-23T18:23:55.969Z,4.10
2019-05-23T18:26:29.704Z,4.53
2019-05-23T18:28:58.397Z,37.47
2019-05-23T18:31:28.658Z,34.30
2019-05-23T18:33:58.103Z,28.33
2019-05-23T18:36:27.584Z,22.00
2019-05-23T18:38:56.452Z,14.73
2019-05-23T18:41:25.200Z,11.93
2019-05-23T18:43:54.906Z,7.93
2019-05-23T18:46:28.625Z,7.20
2019-05-23T18:48:57.404Z,11.97
2019-05-23T18:51:26.297Z,10.90
2019-05-23T18:53:55.079Z,9.10
2019-05-23T18:56:24.137Z,2.47
2019-05-23T18:58:54.378Z,3.10
2019-05-23T19:01:24.682Z,3.73
2019-05-23T19:03:53.384Z,2.00
2019-05-23T19:06:22.401Z,4.17
2019-05-23T19:08:52.114Z,2.73
2019-05-23T19:11:22.044Z,5.03
2019-05-23T19:13:53.746Z,7.73
2019-05-23T19:16:22.608Z,2.40
2019-05-23T19:18:51.261Z,2.07
2019-05-23T19:21:20.859Z,6.80
2019-05-23T19:23:49.485Z,7.10
2019-05-23T19:26:18.454Z,3.80
2019-05-23T19:28:47.425Z,22.10
2019-05-23T19:31:16.403Z,15.73
2019-05-23T19:33:46.068Z,4.47
2019-05-23T19:36:15.351Z,6.93
2019-05-23T19:38:44.135Z,2.87
2019-05-23T19:41:14.045Z,4.60
2019-05-23T19:43:43.131Z,3.20
2019-05-23T19:46:12.426Z,4.07
2019-05-23T19:48:42.993Z,4.67
2019-05-23T19:51:11.936Z,1.60
2019-05-23T19:53:41.206Z,2.60
2019-05-23T19:56:10.394Z,8.00
2019-05-23T19:58:39.519Z,3.57
2019-05-23T20:01:08.368Z,10.90
2019-05-23T20:03:37.265Z,9.70
2019-05-23T20:06:08.587Z,3.37
2019-05-23T20:08:37.333Z,4.10
2019-05-23T20:11:06.112Z,14.00
2019-05-23T20:13:34.724Z,5.60
2019-05-23T20:16:03.475Z,4.70
2019-05-23T20:18:32.595Z,2.27
2019-05-23T20:21:01.440Z,7.90
2019-05-23T20:23:30.115Z,2.93
2019-05-23T20:25:58.756Z,6.43
2019-05-23T20:28:27.511Z,3.03
2019-05-23T20:30:56.323Z,2.57
2019-05-23T20:33:25.371Z,4.03
2019-05-23T20:35:53.973Z,3.57
2019-05-23T20:38:26.234Z,2.33
2019-05-23T20:40:55.091Z,6.80
2019-05-23T20:43:23.764Z,3.47
2019-05-23T20:45:52.547Z,3.23
2019-05-23T20:48:21.791Z,4.20
2019-05-23T20:50:50.452Z,2.60
2019-05-23T20:53:19.061Z,4.23
2019-05-23T20:55:47.756Z,2.73
2019-05-23T20:58:16.766Z,3.83
2019-05-23T21:00:49.832Z,3.37
2019-05-23T21:03:18.982Z,6.23
2019-05-23T21:05:47.641Z,2.57
2019-05-23T21:08:16.331Z,3.60
2019-05-23T21:10:48.950Z,11.37
2019-05-23T21:13:18.132Z,4.87
2019-05-23T21:15:47.237Z,4.10
2019-05-23T21:18:16.015Z,4.20
2019-05-23T21:20:44.654Z,4.70
2019-05-23T21:23:13.535Z,3.60
2019-05-23T21:25:43.868Z,5.13
2019-05-23T21:28:12.494Z,2.90
2019-05-23T21:30:41.245Z,3.73
2019-05-23T21:33:10.482Z,6.33
2019-05-23T21:35:39.107Z,4.50
2019-05-23T21:38:07.807Z,3.37
2019-05-23T21:40:39.568Z,2.93
2019-05-23T21:43:08.322Z,3.07
2019-05-23T21:45:36.936Z,3.07
2019-05-23T21:48:05.625Z,1.90
2019-05-23T21:50:34.314Z,6.03
2019-05-23T21:53:03.426Z,4.43
2019-05-23T21:55:42.614Z,8.23
2019-05-23T21:58:13.536Z,2.50
2019-05-23T22:01:07.830Z,2.73
2019-05-23T22:03:39.571Z,5.93
2019-05-23T22:06:12.670Z,12.23
2019-05-23T22:08:41.895Z,6.37
2019-05-23T22:11:11.416Z,4.50
2019-05-23T22:13:40.142Z,7.57
2019-05-23T22:16:09.324Z,4.03
2019-05-23T22:18:38.191Z,3.37
2019-05-23T22:21:06.817Z,4.20
2019-05-23T22:23:35.906Z,3.40
2019-05-23T22:26:04.595Z,6.60
2019-05-23T22:28:33.318Z,2.90
2019-05-23T22:31:01.911Z,3.17
2019-05-23T22:33:32.253Z,2.53
2019-05-23T22:36:01.205Z,2.43
2019-05-23T22:38:29.890Z,5.77
2019-05-23T22:40:58.504Z,3.23
2019-05-23T22:43:27.698Z,4.17
2019-05-23T22:45:56.481Z,5.90
2019-05-23T22:48:25.177Z,5.30
2019-05-23T22:50:53.808Z,6.83
2019-05-23T22:53:22.506Z,1.90
2019-05-23T22:55:51.149Z,4.20
2019-05-23T22:58:19.832Z,2.50
2019-05-23T23:00:49.342Z,2.20
2019-05-23T23:03:18.049Z,3.40
2019-05-23T23:05:46.669Z,3.37
2019-05-23T23:08:15.633Z,4.43
2019-05-23T23:10:44.474Z,2.57
2019-05-23T23:13:13.424Z,3.50
2019-05-23T23:15:42.096Z,4.00
2019-05-23T23:18:11.015Z,5.70
2019-05-23T23:20:39.693Z,2.73
2019-05-23T23:23:08.299Z,4.60
2019-05-23T23:25:37.185Z,2.63
2019-05-23T23:28:06.151Z,6.00
2019-05-23T23:30:36.401Z,7.40
2019-05-23T23:33:05.072Z,3.53
2019-05-23T23:35:34.835Z,3.87
2019-05-23T23:38:03.581Z,4.50
2019-05-23T23:40:32.687Z,5.40
2019-05-23T23:43:01.290Z,3.63
2019-05-23T23:45:50.204Z,4.37
2019-05-23T23:48:36.560Z,4.50
2019-05-23T23:51:23.217Z,3.70
2019-05-23T23:54:09.815Z,4.57
2019-05-23T23:56:56.194Z,3.93
2019-05-23T23:59:24.046Z,3.23
